createdAt,value
2017-06-15T00:01:37.810Z,13.60
2017-06-15T00:04:04.073Z,13.50
2017-06-15T00:06:30.389Z,13.50
2017-06-15T00:08:56.697Z,13.50
2017-06-15T00:11:22.978Z,13.50
2017-06-15T00:13:50.277Z,13.40
2017-06-15T00:16:16.524Z,13.40
2017-06-15T00:18:42.786Z,13.50
2017-06-15T00:21:09.090Z,13.60
2017-06-15T00:23:35.354Z,13.50
2017-06-15T00:26:02.649Z,13.50
2017-06-15T00:28:28.957Z,13.40
2017-06-15T00:30:55.245Z,13.40
2017-06-15T00:33:21.520Z,13.40
2017-06-15T00:35:47.833Z,13.40
2017-06-15T00:38:14.095Z,13.40
2017-06-15T00:40:40.362Z,13.30
2017-06-15T00:43:07.695Z,13.20
2017-06-15T00:45:33.957Z,13.20
2017-06-15T00:48:00.228Z,13.10
2017-06-15T00:50:26.553Z,13.10
2017-06-15T00:52:52.826Z,13.00
2017-06-15T00:55:19.090Z,13.00
2017-06-15T00:57:45.386Z,13.00
2017-06-15T01:00:11.649Z,13.00
2017-06-15T01:02:37.917Z,13.00
2017-06-15T01:05:04.225Z,12.90
2017-06-15T01:07:30.499Z,12.80
2017-06-15T01:09:56.777Z,12.70
2017-06-15T01:12:23.820Z,12.80
2017-06-15T01:14:50.822Z,12.80
2017-06-15T01:17:17.097Z,12.80
2017-06-15T01:19:43.469Z,12.80
2017-06-15T01:22:09.732Z,12.70
2017-06-15T01:24:35.998Z,12.90
2017-06-15T01:27:02.307Z,12.90
2017-06-15T01:29:28.574Z,12.90
2017-06-15T01:31:54.878Z,12.80
2017-06-15T01:34:21.198Z,12.70
2017-06-15T01:36:47.468Z,12.70
2017-06-15T01:39:13.777Z,12.60
2017-06-15T01:41:40.123Z,12.50
2017-06-15T01:44:06.426Z,12.50
2017-06-15T01:46:32.729Z,12.50
2017-06-15T01:48:59.066Z,12.50
2017-06-15T01:51:25.339Z,12.40
2017-06-15T01:53:51.629Z,12.40
2017-06-15T01:56:18.733Z,12.30
2017-06-15T01:58:44.995Z,12.20
2017-06-15T02:01:12.009Z,12.20
2017-06-15T02:03:38.326Z,12.20
2017-06-15T02:06:04.597Z,12.30
2017-06-15T02:08:30.873Z,12.30
2017-06-15T02:10:57.176Z,12.30
2017-06-15T02:13:23.477Z,12.30
2017-06-15T02:15:49.754Z,12.50
2017-06-15T02:18:16.073Z,12.60
2017-06-15T02:20:42.358Z,12.50
2017-06-15T02:23:08.621Z,12.50
2017-06-15T02:25:34.941Z,12.50
2017-06-15T02:28:01.962Z,12.50
2017-06-15T02:30:28.262Z,12.50
2017-06-15T02:32:55.602Z,12.50
2017-06-15T02:35:21.863Z,12.50
2017-06-15T02:37:48.125Z,12.50
2017-06-15T02:40:15.181Z,12.50
2017-06-15T02:42:41.437Z,12.40
2017-06-15T02:45:07.696Z,12.40
2017-06-15T02:47:33.997Z,12.40
2017-06-15T02:50:00.257Z,12.30
2017-06-15T02:52:26.693Z,12.30
2017-06-15T02:54:52.954Z,12.30
2017-06-15T02:57:20.243Z,12.30
2017-06-15T02:59:46.541Z,12.30
2017-06-15T03:02:13.554Z,12.20
2017-06-15T03:04:39.836Z,12.20
2017-06-15T03:07:06.137Z,12.20
2017-06-15T03:09:33.401Z,12.20
2017-06-15T03:12:00.396Z,12.20
2017-06-15T03:14:26.697Z,12.10
2017-06-15T03:16:52.982Z,12.10
2017-06-15T03:19:19.245Z,12.10
2017-06-15T03:21:45.545Z,12.00
2017-06-15T03:24:12.540Z,12.00
2017-06-15T03:26:38.804Z,12.00
2017-06-15T03:29:05.117Z,12.10
2017-06-15T03:31:31.396Z,12.20
2017-06-15T03:33:58.408Z,12.20
2017-06-15T03:36:24.726Z,12.20
2017-06-15T03:38:51.001Z,12.20
2017-06-15T03:41:17.265Z,12.30
2017-06-15T03:43:43.574Z,12.50
2017-06-15T03:46:09.845Z,12.50
2017-06-15T03:48:36.103Z,12.50
2017-06-15T03:51:03.146Z,12.70
2017-06-15T03:53:30.157Z,12.80
2017-06-15T03:55:56.432Z,12.70
2017-06-15T03:58:22.750Z,12.80
2017-06-15T04:00:49.754Z,12.70
2017-06-15T04:03:16.025Z,12.70
2017-06-15T04:05:43.086Z,12.70
2017-06-15T04:08:09.361Z,12.70
2017-06-15T04:10:35.625Z,12.80
2017-06-15T04:13:02.931Z,12.80
2017-06-15T04:15:29.213Z,12.80
2017-06-15T04:17:55.469Z,12.90
2017-06-15T04:20:21.859Z,13.00
2017-06-15T04:22:48.109Z,13.10
2017-06-15T04:25:14.377Z,13.10
2017-06-15T04:27:40.685Z,13.20
2017-06-15T04:30:06.950Z,13.30
2017-06-15T04:32:33.221Z,13.40
2017-06-15T04:34:59.530Z,13.50
2017-06-15T04:37:25.803Z,13.60
2017-06-15T04:39:52.073Z,13.70
2017-06-15T04:42:18.385Z,13.80
2017-06-15T04:44:44.645Z,13.80
2017-06-15T04:47:10.925Z,14.00
2017-06-15T04:49:37.229Z,14.00
2017-06-15T04:52:04.231Z,14.10
2017-06-15T04:54:30.490Z,14.10
2017-06-15T04:56:57.794Z,14.20
2017-06-15T04:59:24.062Z,14.30
2017-06-15T05:01:50.329Z,14.30
2017-06-15T05:04:16.633Z,14.50
2017-06-15T05:06:42.890Z,14.50
2017-06-15T05:09:09.178Z,14.60
2017-06-15T05:11:36.502Z,14.80
2017-06-15T05:14:02.777Z,15.00
2017-06-15T05:16:29.797Z,15.30
2017-06-15T05:18:56.093Z,15.30
2017-06-15T05:21:22.361Z,15.40
2017-06-15T05:23:48.621Z,15.50
2017-06-15T05:26:14.933Z,15.60
2017-06-15T05:28:42.218Z,15.70
2017-06-15T05:31:08.477Z,15.80
2017-06-15T05:33:34.781Z,15.90
2017-06-15T05:36:01.046Z,16.00
2017-06-15T05:38:27.313Z,16.20
2017-06-15T05:40:54.356Z,16.50
2017-06-15T05:43:21.185Z,16.50
2017-06-15T05:45:47.525Z,16.70
2017-06-15T05:48:14.589Z,17.00
2017-06-15T05:50:40.849Z,17.00
2017-06-15T05:53:07.117Z,17.20
2017-06-15T05:55:33.410Z,17.40
2017-06-15T05:57:59.666Z,17.60
2017-06-15T06:00:25.934Z,17.80
2017-06-15T06:02:52.251Z,17.90
2017-06-15T06:05:19.253Z,18.10
2017-06-15T06:07:45.537Z,18.10
2017-06-15T06:10:12.833Z,18.30
2017-06-15T06:12:39.086Z,18.40
2017-06-15T06:15:05.358Z,18.50
2017-06-15T06:17:31.671Z,18.60
2017-06-15T06:19:58.697Z,19.10
2017-06-15T06:22:24.968Z,19.10
2017-06-15T06:24:51.283Z,19.20
2017-06-15T06:27:17.574Z,19.30
2017-06-15T06:29:43.839Z,19.40
2017-06-15T06:32:10.169Z,19.60
2017-06-15T06:34:36.430Z,19.80
2017-06-15T06:37:02.692Z,19.90
2017-06-15T06:39:28.992Z,20.20
2017-06-15T06:41:55.253Z,20.40
2017-06-15T06:44:21.515Z,20.50
2017-06-15T06:46:47.822Z,20.50
2017-06-15T06:49:14.816Z,20.80
2017-06-15T06:51:41.107Z,20.80
2017-06-15T06:54:08.137Z,21.00
2017-06-15T06:56:34.397Z,20.90
2017-06-15T06:59:00.657Z,21.10
2017-06-15T07:01:26.953Z,21.30
2017-06-15T07:03:53.222Z,21.50
2017-06-15T07:06:19.482Z,21.60
2017-06-15T07:08:45.773Z,21.60
2017-06-15T07:11:12.021Z,21.50
2017-06-15T07:13:38.334Z,21.80
2017-06-15T07:16:04.629Z,22.20
2017-06-15T07:18:30.882Z,22.10
2017-06-15T07:20:57.141Z,22.00
2017-06-15T07:23:24.426Z,22.30
2017-06-15T07:25:51.429Z,22.80
2017-06-15T07:28:17.701Z,22.80
2017-06-15T07:30:43.993Z,22.80
2017-06-15T07:33:10.261Z,22.80
2017-06-15T07:35:37.245Z,22.80
2017-06-15T07:38:03.533Z,22.80
2017-06-15T07:40:29.781Z,22.90
2017-06-15T07:42:56.021Z,23.20
2017-06-15T07:45:22.357Z,23.40
2017-06-15T07:47:48.605Z,23.40
2017-06-15T07:50:14.853Z,23.50
2017-06-15T07:52:41.169Z,23.60
2017-06-15T07:55:07.420Z,23.80
2017-06-15T07:57:34.441Z,24.20
2017-06-15T08:00:00.762Z,24.20
2017-06-15T08:02:27.030Z,24.30
2017-06-15T08:04:54.044Z,24.10
2017-06-15T08:07:20.378Z,24.10
2017-06-15T08:09:46.669Z,23.90
2017-06-15T08:12:12.945Z,24.30
2017-06-15T08:14:39.245Z,24.50
2017-06-15T08:17:06.525Z,24.70
2017-06-15T08:19:32.786Z,24.90
2017-06-15T08:21:59.086Z,25.00
2017-06-15T08:24:25.342Z,25.20
2017-06-15T08:26:51.607Z,25.20
2017-06-15T08:29:17.897Z,25.20
2017-06-15T08:31:44.901Z,24.80
2017-06-15T08:34:11.175Z,24.80
2017-06-15T08:36:37.489Z,25.10
2017-06-15T08:39:04.489Z,25.60
2017-06-15T08:41:30.752Z,25.50
2017-06-15T08:43:57.060Z,25.50
2017-06-15T08:46:23.321Z,25.70
2017-06-15T08:48:49.581Z,25.70
2017-06-15T08:51:15.868Z,25.60
2017-06-15T08:53:42.134Z,25.90
2017-06-15T08:56:08.393Z,26.10
2017-06-15T08:58:34.719Z,25.80
2017-06-15T09:01:01.001Z,25.40
2017-06-15T09:03:28.001Z,25.40
2017-06-15T09:05:54.297Z,25.40
2017-06-15T09:08:20.568Z,25.80
2017-06-15T09:10:46.825Z,26.10
2017-06-15T09:13:13.153Z,26.50
2017-06-15T09:15:39.409Z,26.70
2017-06-15T09:18:05.722Z,27.00
2017-06-15T09:20:32.769Z,26.90
2017-06-15T09:22:59.022Z,26.90
2017-06-15T09:25:25.269Z,27.00
2017-06-15T09:27:51.573Z,27.00
2017-06-15T09:30:17.849Z,27.10
2017-06-15T09:32:44.110Z,27.30
2017-06-15T09:35:11.145Z,26.80
2017-06-15T09:37:37.401Z,26.80
2017-06-15T09:40:03.674Z,27.00
2017-06-15T09:42:30.006Z,27.10
2017-06-15T09:44:56.261Z,27.30
2017-06-15T09:47:22.535Z,27.00
2017-06-15T09:49:55.670Z,27.40
2017-06-15T09:52:21.954Z,27.70
2017-06-15T09:54:48.221Z,27.30
2017-06-15T09:57:14.515Z,26.60
2017-06-15T09:59:40.765Z,27.00
2017-06-15T10:02:07.021Z,27.10
2017-06-15T10:04:33.316Z,27.00
2017-06-15T10:06:59.572Z,27.00
2017-06-15T10:09:25.837Z,27.60
2017-06-15T10:11:52.123Z,26.90
2017-06-15T10:14:18.389Z,27.20
2017-06-15T10:16:44.668Z,28.20
2017-06-15T10:19:10.965Z,28.60
2017-06-15T10:21:37.248Z,28.50
2017-06-15T10:24:03.505Z,28.40
2017-06-15T10:26:29.801Z,28.10
2017-06-15T10:28:56.065Z,28.30
2017-06-15T10:31:22.345Z,28.60
2017-06-15T10:33:48.662Z,28.70
2017-06-15T10:36:14.908Z,28.80
2017-06-15T10:38:41.161Z,28.90
2017-06-15T10:41:08.193Z,28.90
2017-06-15T10:43:34.441Z,28.80
2017-06-15T10:46:01.445Z,27.70
2017-06-15T10:48:28.756Z,27.60
2017-06-15T10:50:55.013Z,27.30
2017-06-15T10:53:21.269Z,27.60
2017-06-15T10:55:47.565Z,28.50
2017-06-15T10:58:13.824Z,28.90
2017-06-15T11:00:40.082Z,29.10
2017-06-15T11:03:07.125Z,29.20
2017-06-15T11:05:33.380Z,29.10
2017-06-15T11:07:59.641Z,29.30
2017-06-15T11:10:25.937Z,29.20
2017-06-15T11:12:52.193Z,28.60
2017-06-15T11:15:18.459Z,28.10
2017-06-15T11:17:44.753Z,28.20
2017-06-15T11:20:11.008Z,28.50
2017-06-15T11:22:37.262Z,29.10
2017-06-15T11:25:04.315Z,27.90
2017-06-15T11:27:30.562Z,27.80
2017-06-15T11:29:56.812Z,27.80
2017-06-15T11:32:23.097Z,28.30
2017-06-15T11:34:50.085Z,28.00
2017-06-15T11:37:16.338Z,28.00
2017-06-15T11:39:43.645Z,28.40
2017-06-15T11:42:09.893Z,28.70
2017-06-15T11:44:36.145Z,28.70
2017-06-15T11:47:03.444Z,28.20
2017-06-15T11:49:29.705Z,27.70
2017-06-15T11:51:55.957Z,27.90
2017-06-15T11:54:22.257Z,27.80
2017-06-15T11:56:48.513Z,28.30
2017-06-15T11:59:14.765Z,28.40
2017-06-15T12:01:41.805Z,27.80
2017-06-15T12:04:08.065Z,27.80
2017-06-15T12:06:34.320Z,28.40
2017-06-15T12:09:00.618Z,29.00
2017-06-15T12:11:26.875Z,28.70
2017-06-15T12:13:53.133Z,29.30
2017-06-15T12:16:19.429Z,30.30
2017-06-15T12:18:45.665Z,30.80
2017-06-15T12:21:11.913Z,30.60
2017-06-15T12:23:38.219Z,30.00
2017-06-15T12:26:04.477Z,29.30
2017-06-15T12:28:30.734Z,29.30
2017-06-15T12:30:57.031Z,29.10
2017-06-15T12:33:23.289Z,30.10
2017-06-15T12:35:49.551Z,30.50
2017-06-15T12:38:15.853Z,29.80
2017-06-15T12:40:42.101Z,30.50
2017-06-15T12:43:08.361Z,30.50
2017-06-15T12:45:34.661Z,31.40
2017-06-15T12:48:00.937Z,31.40
2017-06-15T12:50:27.193Z,30.90
2017-06-15T12:52:54.231Z,32.30
2017-06-15T12:55:21.221Z,32.00
2017-06-15T12:57:47.476Z,31.90
2017-06-15T13:00:13.771Z,32.20
2017-06-15T13:02:40.052Z,32.30
2017-06-15T13:05:06.301Z,32.00
2017-06-15T13:07:32.600Z,32.80
2017-06-15T13:09:58.864Z,32.60
2017-06-15T13:12:25.868Z,32.80
2017-06-15T13:14:52.169Z,32.70
2017-06-15T13:17:18.455Z,32.60
2017-06-15T13:19:44.713Z,34.50
2017-06-15T13:22:11.013Z,34.90
2017-06-15T13:24:38.009Z,34.60
2017-06-15T13:27:04.277Z,34.60
2017-06-15T13:29:30.573Z,33.70
2017-06-15T13:31:56.830Z,33.10
2017-06-15T13:34:23.087Z,32.00
2017-06-15T13:36:50.374Z,31.60
2017-06-15T13:39:16.665Z,31.80
2017-06-15T13:41:42.926Z,33.60
2017-06-15T13:44:09.225Z,34.70
2017-06-15T13:46:35.481Z,33.30
2017-06-15T13:49:01.734Z,32.10
2017-06-15T13:51:28.039Z,32.00
2017-06-15T13:53:54.293Z,31.30
2017-06-15T13:56:20.546Z,30.50
2017-06-15T13:58:46.857Z,30.70
2017-06-15T14:01:13.113Z,32.10
2017-06-15T14:03:39.365Z,33.70
2017-06-15T14:06:05.674Z,34.50
2017-06-15T14:08:32.674Z,36.00
2017-06-15T14:10:58.937Z,36.00
2017-06-15T14:13:25.242Z,36.20
2017-06-15T14:15:51.497Z,33.90
2017-06-15T14:18:18.498Z,37.20
2017-06-15T14:20:44.785Z,37.10
2017-06-15T14:23:11.044Z,38.70
2017-06-15T14:25:37.344Z,39.40
2017-06-15T14:28:03.671Z,37.60
2017-06-15T14:30:29.921Z,36.60
2017-06-15T14:32:56.173Z,36.70
2017-06-15T14:35:22.469Z,38.60
2017-06-15T14:37:48.726Z,39.90
2017-06-15T14:40:14.988Z,40.50
2017-06-15T14:42:42.282Z,42.10
2017-06-15T14:45:08.539Z,42.00
2017-06-15T14:47:34.788Z,41.50
2017-06-15T14:50:01.094Z,40.40
2017-06-15T14:52:27.361Z,41.10
2017-06-15T14:54:53.609Z,41.80
2017-06-15T14:57:19.916Z,40.90
2017-06-15T14:59:46.173Z,41.30
2017-06-15T15:02:13.168Z,39.80
2017-06-15T15:04:40.474Z,39.70
2017-06-15T15:07:06.726Z,40.60
2017-06-15T15:09:40.009Z,41.20
2017-06-15T15:12:06.266Z,41.00
2017-06-15T15:14:32.525Z,40.20
2017-06-15T15:16:58.829Z,40.10
2017-06-15T15:19:25.097Z,39.00
2017-06-15T15:21:53.117Z,35.50
2017-06-15T15:24:19.425Z,35.40
2017-06-15T15:26:45.710Z,34.90
2017-06-15T15:29:12.025Z,35.00
2017-06-15T15:31:38.349Z,34.70
2017-06-15T15:34:04.610Z,34.50
2017-06-15T15:36:31.605Z,35.80
2017-06-15T15:38:57.914Z,35.70
2017-06-15T15:41:24.161Z,35.30
2017-06-15T15:43:50.413Z,34.00
2017-06-15T15:46:16.710Z,32.60
2017-06-15T15:48:42.970Z,31.60
2017-06-15T15:51:09.599Z,31.00
2017-06-15T15:53:35.897Z,30.60
2017-06-15T15:56:02.150Z,30.60
2017-06-15T15:58:28.414Z,31.10
2017-06-15T16:00:54.716Z,31.50
2017-06-15T16:03:20.964Z,31.00
2017-06-15T16:05:47.222Z,31.10
2017-06-15T16:08:13.552Z,31.10
2017-06-15T16:10:40.578Z,31.10
2017-06-15T16:13:06.833Z,31.10
2017-06-15T16:15:33.134Z,30.50
2017-06-15T16:17:59.380Z,29.90
2017-06-15T16:20:25.634Z,29.40
2017-06-15T16:22:51.967Z,29.10
2017-06-15T16:25:18.317Z,28.80
2017-06-15T16:27:44.565Z,28.70
2017-06-15T16:30:10.873Z,28.70
2017-06-15T16:32:37.125Z,28.60
2017-06-15T16:35:03.410Z,28.50
2017-06-15T16:37:29.697Z,28.40
2017-06-15T16:39:55.952Z,28.30
2017-06-15T16:42:22.221Z,27.90
2017-06-15T16:44:48.513Z,27.90
2017-06-15T16:47:14.765Z,27.60
2017-06-15T16:49:41.033Z,27.40
2017-06-15T16:52:07.325Z,27.20
2017-06-15T16:54:34.619Z,26.80
2017-06-15T16:57:00.881Z,26.80
2017-06-15T16:59:27.177Z,26.80
2017-06-15T17:01:53.445Z,26.70
2017-06-15T17:04:19.702Z,26.50
2017-06-15T17:06:52.947Z,26.70
2017-06-15T17:09:19.958Z,26.60
2017-06-15T17:11:47.261Z,26.60
2017-06-15T17:14:13.549Z,26.50
2017-06-15T17:16:39.796Z,26.50
2017-06-15T17:19:06.045Z,27.00
2017-06-15T17:21:33.333Z,27.30
2017-06-15T17:23:59.586Z,27.50
2017-06-15T17:26:25.849Z,27.70
2017-06-15T17:28:52.134Z,27.50
2017-06-15T17:31:18.390Z,27.40
2017-06-15T17:33:44.669Z,27.40
2017-06-15T17:36:10.965Z,27.50
2017-06-15T17:38:37.241Z,27.40
2017-06-15T17:41:03.497Z,27.40
2017-06-15T17:43:30.533Z,27.20
2017-06-15T17:45:56.789Z,27.20
2017-06-15T17:48:23.033Z,27.30
2017-06-15T17:50:49.383Z,27.00
2017-06-15T17:53:15.625Z,26.90
2017-06-15T17:55:41.900Z,26.90
2017-06-15T17:58:08.197Z,27.00
2017-06-15T18:00:34.461Z,26.60
2017-06-15T18:03:00.726Z,26.50
2017-06-15T18:05:27.021Z,26.30
2017-06-15T18:07:53.309Z,26.10
2017-06-15T18:10:19.593Z,25.90
2017-06-15T18:12:45.889Z,25.70
2017-06-15T18:15:12.138Z,25.50
2017-06-15T18:17:39.128Z,25.30
2017-06-15T18:20:05.430Z,25.20
2017-06-15T18:22:31.683Z,25.20
2017-06-15T18:24:57.950Z,25.10
2017-06-15T18:27:24.261Z,25.10
2017-06-15T18:29:50.564Z,24.90
2017-06-15T18:32:16.841Z,24.70
2017-06-15T18:34:44.141Z,24.60
2017-06-15T18:37:10.396Z,24.40
2017-06-15T18:39:36.658Z,24.30
2017-06-15T18:42:02.989Z,24.20
2017-06-15T18:44:29.241Z,24.10
2017-06-15T18:46:56.254Z,23.90
2017-06-15T18:49:23.521Z,23.90
2017-06-15T18:51:50.523Z,23.70
2017-06-15T18:54:16.809Z,23.70
2017-06-15T18:56:43.101Z,23.50
2017-06-15T18:59:09.346Z,23.40
2017-06-15T19:01:35.597Z,23.40
2017-06-15T19:04:01.881Z,23.30
2017-06-15T19:06:28.146Z,23.30
2017-06-15T19:08:54.437Z,23.30
2017-06-15T19:11:20.733Z,23.20
2017-06-15T19:13:46.983Z,23.20
2017-06-15T19:16:13.239Z,23.10
2017-06-15T19:18:39.541Z,23.00
2017-06-15T19:21:06.769Z,22.90
2017-06-15T19:23:33.025Z,22.80
2017-06-15T19:25:59.318Z,22.70
2017-06-15T19:28:25.586Z,22.70
2017-06-15T19:30:51.829Z,22.70
2017-06-15T19:33:18.133Z,22.60
2017-06-15T19:35:44.388Z,22.60
2017-06-15T19:38:10.669Z,22.60
2017-06-15T19:40:36.973Z,22.60
2017-06-15T19:43:03.262Z,22.50
2017-06-15T19:45:29.566Z,22.50
2017-06-15T19:47:56.049Z,22.50
2017-06-15T19:50:23.057Z,22.50
2017-06-15T19:52:49.305Z,22.50
2017-06-15T19:55:15.618Z,22.50
2017-06-15T19:57:41.864Z,22.40
2017-06-15T20:00:08.118Z,22.40
2017-06-15T20:02:35.715Z,22.50
2017-06-15T20:05:01.976Z,22.50
2017-06-15T20:07:28.237Z,22.60
2017-06-15T20:09:54.605Z,22.60
2017-06-15T20:12:20.856Z,22.50
2017-06-15T20:14:47.142Z,22.50
2017-06-15T20:17:13.449Z,22.50
2017-06-15T20:19:41.349Z,22.40
2017-06-15T20:22:07.629Z,22.40
2017-06-15T20:24:40.794Z,22.40
2017-06-15T20:27:07.077Z,22.40
2017-06-15T20:29:33.371Z,22.40
2017-06-15T20:31:59.714Z,22.30
2017-06-15T20:34:26.746Z,22.30
2017-06-15T20:36:53.757Z,22.30
2017-06-15T20:39:21.075Z,22.30
2017-06-15T20:41:47.369Z,22.30
2017-06-15T20:44:13.605Z,22.20
2017-06-15T20:46:39.901Z,22.20
2017-06-15T20:49:06.157Z,22.20
2017-06-15T20:51:32.416Z,22.10
2017-06-15T20:53:58.713Z,22.10
2017-06-15T20:56:24.977Z,22.20
2017-06-15T20:58:51.238Z,22.10
2017-06-15T21:01:17.560Z,22.10
2017-06-15T21:03:43.809Z,22.10
2017-06-15T21:06:10.061Z,22.10
2017-06-15T21:08:36.366Z,22.00
2017-06-15T21:11:02.630Z,22.10
2017-06-15T21:13:29.625Z,22.00
2017-06-15T21:15:55.924Z,22.00
2017-06-15T21:18:22.185Z,22.00
2017-06-15T21:20:48.433Z,22.00
2017-06-15T21:23:14.745Z,22.00
2017-06-15T21:25:40.998Z,21.90
2017-06-15T21:28:07.249Z,21.80
2017-06-15T21:30:33.551Z,21.70
2017-06-15T21:32:59.817Z,21.60
2017-06-15T21:35:26.121Z,21.50
2017-06-15T21:37:52.418Z,21.40
2017-06-15T21:40:18.672Z,21.30
2017-06-15T21:42:44.934Z,21.10
2017-06-15T21:45:11.984Z,20.60
2017-06-15T21:47:38.238Z,20.50
2017-06-15T21:50:04.490Z,20.40
2017-06-15T21:52:30.805Z,20.30
2017-06-15T21:54:57.066Z,20.30
2017-06-15T21:57:23.315Z,20.40
2017-06-15T21:59:50.357Z,20.30
2017-06-15T22:02:17.352Z,20.20
2017-06-15T22:04:43.611Z,20.20
2017-06-15T22:07:10.921Z,20.10
2017-06-15T22:09:37.185Z,20.00
2017-06-15T22:12:03.441Z,20.00
2017-06-15T22:14:30.472Z,19.60
2017-06-15T22:16:56.724Z,19.60
2017-06-15T22:19:23.727Z,19.40
2017-06-15T22:21:50.045Z,19.30
2017-06-15T22:24:16.306Z,19.20
2017-06-15T22:26:42.553Z,19.20
2017-06-15T22:29:09.834Z,19.20
2017-06-15T22:31:36.085Z,19.00
2017-06-15T22:34:02.353Z,19.00
2017-06-15T22:36:28.657Z,18.90
2017-06-15T22:38:54.906Z,18.80
2017-06-15T22:41:21.153Z,18.70
2017-06-15T22:43:48.209Z,18.60
2017-06-15T22:46:14.464Z,18.60
2017-06-15T22:48:40.719Z,18.50
2017-06-15T22:51:07.005Z,18.50
2017-06-15T22:53:33.281Z,18.50
2017-06-15T22:55:59.525Z,18.40
2017-06-15T22:58:25.828Z,18.30
2017-06-15T23:00:52.077Z,18.30
2017-06-15T23:03:30.613Z,18.20
2017-06-15T23:05:56.885Z,18.20
2017-06-15T23:08:23.128Z,18.10
2017-06-15T23:10:49.416Z,18.00
2017-06-15T23:13:15.670Z,18.00
2017-06-15T23:15:42.961Z,18.00
2017-06-15T23:18:09.261Z,18.00
2017-06-15T23:20:35.527Z,18.00
2017-06-15T23:23:01.793Z,17.90
2017-06-15T23:25:28.085Z,18.00
2017-06-15T23:27:54.354Z,17.90
2017-06-15T23:30:20.631Z,17.90
2017-06-15T23:32:46.933Z,17.80
2017-06-15T23:35:13.218Z,17.80
2017-06-15T23:37:41.242Z,17.70
2017-06-15T23:40:07.561Z,17.60
2017-06-15T23:42:34.829Z,17.60
2017-06-15T23:45:01.103Z,17.70
2017-06-15T23:47:27.402Z,17.70
2017-06-15T23:49:54.469Z,17.60
2017-06-15T23:52:21.474Z,17.50
2017-06-15T23:54:47.765Z,17.50
2017-06-15T23:57:14.021Z,17.50
2017-06-15T23:59:40.280Z,17.50
